createdAt,value
2023-07-03T00:01:18.262Z,19.10
2023-07-03T00:03:44.809Z,20.00
2023-07-03T00:06:11.546Z,17.75
2023-07-03T00:08:38.057Z,19.63
2023-07-03T00:11:06.164Z,17.77
2023-07-03T00:13:32.975Z,15.52
2023-07-03T00:16:01.370Z,18.70
2023-07-03T00:18:29.711Z,18.83
2023-07-03T00:20:56.905Z,15.37
2023-07-03T00:23:24.963Z,13.98
2023-07-03T00:25:52.541Z,18.83
2023-07-03T00:28:19.859Z,13.60
2023-07-03T00:30:46.617Z,12.85
2023-07-03T00:33:13.539Z,21.43
2023-07-03T00:35:40.534Z,19.08
2023-07-03T00:38:07.744Z,19.13
2023-07-03T00:40:34.511Z,14.45
2023-07-03T00:43:01.941Z,19.48
2023-07-03T00:45:28.701Z,22.17
2023-07-03T00:47:55.680Z,17.17
2023-07-03T00:50:22.573Z,17.75
2023-07-03T00:52:57.962Z,15.18
2023-07-03T00:55:24.430Z,17.23
2023-07-03T00:57:51.608Z,17.63
2023-07-03T01:00:19.713Z,14.27
2023-07-03T01:03:06.772Z,16.05
2023-07-03T01:05:41.186Z,22.80
2023-07-03T01:08:07.747Z,23.45
2023-07-03T01:10:34.651Z,16.97
2023-07-03T01:13:06.200Z,21.83
2023-07-03T01:15:37.867Z,21.02
2023-07-03T01:18:07.428Z,22.63
2023-07-03T01:20:40.532Z,22.08
2023-07-03T01:23:27.751Z,21.60
2023-07-03T01:25:56.448Z,21.67
2023-07-03T01:28:25.009Z,20.23
2023-07-03T01:30:54.238Z,19.77
2023-07-03T01:33:26.352Z,26.27
2023-07-03T01:35:55.080Z,17.33
2023-07-03T01:38:22.747Z,30.52
2023-07-03T01:40:49.581Z,19.67
2023-07-03T01:43:16.344Z,20.58
2023-07-03T01:45:48.454Z,17.58
2023-07-03T01:48:16.633Z,20.10
2023-07-03T01:50:45.551Z,21.60
2023-07-03T01:53:33.655Z,21.20
2023-07-03T01:56:10.571Z,19.77
2023-07-03T01:58:47.544Z,20.65
2023-07-03T02:01:21.676Z,17.23
2023-07-03T02:03:55.155Z,20.23
2023-07-03T02:06:29.295Z,22.40
2023-07-03T02:08:56.644Z,25.70
2023-07-03T02:11:24.632Z,21.00
2023-07-03T02:13:51.141Z,16.37
2023-07-03T02:16:17.662Z,20.20
2023-07-03T02:18:44.742Z,15.85
2023-07-03T02:21:11.248Z,13.93
2023-07-03T02:23:37.697Z,17.00
2023-07-03T02:26:04.225Z,12.27
2023-07-03T02:28:30.742Z,13.27
2023-07-03T02:30:57.463Z,12.13
2023-07-03T02:33:24.072Z,12.80
2023-07-03T02:35:50.653Z,11.98
2023-07-03T02:38:17.437Z,8.87
2023-07-03T02:40:45.265Z,10.63
2023-07-03T02:43:11.688Z,9.13
2023-07-03T02:45:41.717Z,9.52
2023-07-03T02:48:10.302Z,7.53
2023-07-03T02:50:36.775Z,5.20
2023-07-03T02:53:03.478Z,5.85
2023-07-03T02:55:29.933Z,5.30
2023-07-03T02:57:56.773Z,6.68
2023-07-03T03:00:23.228Z,9.23
2023-07-03T03:02:49.812Z,8.90
2023-07-03T03:05:16.586Z,6.28
2023-07-03T03:07:43.087Z,6.53
2023-07-03T03:10:10.258Z,6.53
2023-07-03T03:12:36.734Z,5.03
2023-07-03T03:15:06.520Z,6.27
2023-07-03T03:17:33.102Z,5.80
2023-07-03T03:20:00.246Z,5.28
2023-07-03T03:22:26.856Z,6.90
2023-07-03T03:24:53.377Z,6.60
2023-07-03T03:27:19.830Z,6.13
2023-07-03T03:29:47.195Z,6.28
2023-07-03T03:32:13.680Z,5.07
2023-07-03T03:34:40.185Z,6.80
2023-07-03T03:37:06.739Z,7.78
2023-07-03T03:39:33.168Z,6.53
2023-07-03T03:41:59.664Z,4.55
2023-07-03T03:44:26.376Z,7.90
2023-07-03T03:46:54.037Z,4.88
2023-07-03T03:49:20.949Z,5.10
2023-07-03T03:51:47.386Z,7.13
2023-07-03T03:54:13.871Z,4.78
2023-07-03T03:56:40.303Z,6.38
2023-07-03T03:59:06.729Z,6.28
2023-07-03T04:01:34.381Z,4.50
2023-07-03T04:04:01.483Z,5.23
2023-07-03T04:06:28.224Z,6.55
2023-07-03T04:08:54.764Z,8.13
2023-07-03T04:11:21.421Z,5.80
2023-07-03T04:13:48.012Z,5.45
2023-07-03T04:16:14.731Z,6.63
2023-07-03T04:18:41.932Z,10.65
2023-07-03T04:21:08.545Z,6.68
2023-07-03T04:23:35.009Z,4.82
2023-07-03T04:26:03.754Z,5.20
2023-07-03T04:28:30.397Z,6.83
2023-07-03T04:30:56.841Z,7.32
2023-07-03T04:33:23.333Z,4.43
2023-07-03T04:35:50.203Z,6.68
2023-07-03T04:38:20.179Z,5.72
2023-07-03T04:40:46.917Z,5.40
2023-07-03T04:43:13.578Z,4.88
2023-07-03T04:45:45.566Z,6.13
2023-07-03T04:48:12.597Z,7.93
2023-07-03T04:50:39.037Z,9.15
2023-07-03T04:53:05.533Z,7.57
2023-07-03T04:55:34.173Z,7.63
2023-07-03T04:58:03.085Z,10.10
2023-07-03T05:00:29.544Z,5.53
2023-07-03T05:03:00.668Z,7.47
2023-07-03T05:05:27.919Z,6.17
2023-07-03T05:07:56.455Z,7.82
2023-07-03T05:10:25.546Z,8.57
2023-07-03T05:12:52.551Z,7.28
2023-07-03T05:15:20.905Z,7.60
2023-07-03T05:17:51.969Z,5.33
2023-07-03T05:20:20.055Z,5.55
2023-07-03T05:22:46.570Z,4.05
2023-07-03T05:25:14.516Z,4.50
2023-07-03T05:27:41.148Z,5.10
2023-07-03T05:30:09.052Z,8.27
2023-07-03T05:32:35.913Z,4.70
2023-07-03T05:35:04.538Z,4.93
2023-07-03T05:37:31.836Z,5.07
2023-07-03T05:39:58.719Z,6.88
2023-07-03T05:42:25.582Z,5.60
2023-07-03T05:44:52.092Z,9.15
2023-07-03T05:47:18.948Z,5.28
2023-07-03T05:49:45.467Z,7.20
2023-07-03T05:52:12.614Z,8.13
2023-07-03T05:54:39.423Z,6.20
2023-07-03T05:57:08.580Z,7.35
2023-07-03T05:59:36.478Z,5.75
2023-07-03T06:02:05.744Z,7.63
2023-07-03T06:04:34.283Z,5.18
2023-07-03T06:07:01.960Z,4.57
2023-07-03T06:09:29.617Z,7.53
2023-07-03T06:11:59.995Z,4.50
2023-07-03T06:14:29.160Z,11.25
2023-07-03T06:16:56.221Z,5.50
2023-07-03T06:19:22.738Z,6.40
2023-07-03T06:21:49.301Z,5.78
2023-07-03T06:24:16.481Z,8.27
2023-07-03T06:26:44.632Z,5.93
2023-07-03T06:29:14.128Z,6.00
2023-07-03T06:31:41.543Z,5.27
2023-07-03T06:34:08.367Z,6.10
2023-07-03T06:36:36.006Z,6.30
2023-07-03T06:39:06.060Z,7.10
2023-07-03T06:41:35.137Z,5.75
2023-07-03T06:44:02.579Z,5.53
2023-07-03T06:46:29.207Z,6.40
2023-07-03T06:48:56.812Z,6.78
2023-07-03T06:51:23.710Z,11.23
2023-07-03T06:53:50.190Z,7.07
2023-07-03T06:56:16.692Z,10.67
2023-07-03T06:58:43.407Z,9.43
2023-07-03T07:01:12.732Z,5.03
2023-07-03T07:03:40.239Z,5.35
2023-07-03T07:06:18.017Z,4.43
2023-07-03T07:08:45.474Z,8.07
2023-07-03T07:11:14.460Z,6.22
2023-07-03T07:13:43.625Z,8.52
2023-07-03T07:16:33.707Z,6.97
2023-07-03T07:19:04.355Z,5.43
2023-07-03T07:21:33.451Z,11.27
2023-07-03T07:24:03.346Z,11.30
2023-07-03T07:26:34.990Z,4.68
2023-07-03T07:29:02.156Z,10.93
2023-07-03T07:31:29.464Z,6.15
2023-07-03T07:33:56.776Z,6.93
2023-07-03T07:36:25.205Z,5.82
2023-07-03T07:38:56.394Z,7.22
2023-07-03T07:41:25.995Z,6.70
2023-07-03T07:43:54.027Z,6.90
2023-07-03T07:46:21.461Z,5.60
2023-07-03T07:48:48.562Z,7.07
2023-07-03T07:51:15.339Z,10.35
2023-07-03T07:53:41.859Z,8.35
2023-07-03T07:56:09.812Z,8.23
2023-07-03T07:58:36.968Z,6.33
2023-07-03T08:01:04.433Z,6.30
2023-07-03T08:03:31.155Z,9.30
2023-07-03T08:06:02.766Z,9.50
2023-07-03T08:08:31.830Z,8.75
2023-07-03T08:11:00.796Z,5.70
2023-07-03T08:13:29.702Z,7.85
2023-07-03T08:15:56.176Z,5.28
2023-07-03T08:18:24.792Z,7.18
2023-07-03T08:20:51.862Z,5.45
2023-07-03T08:23:18.538Z,4.70
2023-07-03T08:25:49.695Z,8.85
2023-07-03T08:28:16.468Z,6.68
2023-07-03T08:30:43.268Z,6.13
2023-07-03T08:33:09.905Z,4.40
2023-07-03T08:38:05.724Z,5.35
2023-07-03T08:40:32.716Z,4.35
2023-07-03T08:43:01.710Z,10.43
2023-07-03T08:45:47.761Z,6.22
2023-07-03T08:48:23.433Z,6.17
2023-07-03T08:50:55.095Z,3.65
2023-07-03T08:53:27.575Z,5.45
2023-07-03T08:56:16.054Z,3.78
2023-07-03T08:58:42.845Z,6.68
2023-07-03T09:01:21.977Z,5.77
2023-07-03T09:04:22.426Z,7.85
2023-07-03T09:06:52.129Z,6.00
2023-07-03T09:09:38.283Z,6.13
2023-07-03T09:12:14.729Z,5.18
2023-07-03T09:14:46.627Z,5.33
2023-07-03T09:17:14.286Z,6.10
2023-07-03T09:19:46.003Z,6.35
2023-07-03T09:22:28.744Z,6.75
2023-07-03T09:24:59.694Z,6.30
2023-07-03T09:27:28.527Z,5.10
2023-07-03T09:30:04.922Z,6.78
2023-07-03T09:32:32.866Z,4.47
2023-07-03T09:35:16.925Z,6.75
2023-07-03T09:37:52.933Z,6.88
2023-07-03T09:40:27.164Z,5.00
2023-07-03T09:42:54.519Z,4.65
2023-07-03T09:45:23.827Z,8.50
2023-07-03T09:47:54.649Z,4.72
2023-07-03T09:50:32.433Z,6.20
2023-07-03T09:53:08.143Z,6.60
2023-07-03T09:55:36.349Z,4.00
2023-07-03T09:58:12.317Z,4.22
2023-07-03T10:00:49.175Z,6.35
2023-07-03T10:08:50.445Z,8.52
2023-07-03T10:11:26.813Z,7.40
2023-07-03T10:13:53.973Z,7.15
2023-07-03T10:16:23.647Z,9.45
2023-07-03T10:18:54.365Z,8.50
2023-07-03T10:21:22.846Z,7.53
2023-07-03T10:23:50.832Z,6.68
2023-07-03T10:26:49.019Z,5.75
2023-07-03T10:29:27.344Z,9.07
2023-07-03T10:32:00.575Z,7.87
2023-07-03T10:34:38.386Z,6.72
2023-07-03T10:37:07.284Z,7.28
2023-07-03T10:39:50.103Z,9.70
2023-07-03T10:42:23.237Z,8.05
2023-07-03T10:44:57.128Z,6.50
2023-07-03T10:47:31.756Z,7.93
2023-07-03T10:49:58.404Z,6.90
2023-07-03T10:52:37.120Z,7.53
2023-07-03T10:55:11.266Z,8.32
2023-07-03T10:58:03.968Z,10.17
2023-07-03T11:00:59.172Z,9.77
2023-07-03T11:04:15.643Z,6.32
2023-07-03T11:07:05.871Z,7.07
2023-07-03T11:09:53.621Z,6.75
2023-07-03T11:12:43.776Z,9.07
2023-07-03T11:15:51.780Z,8.07
2023-07-03T11:24:32.709Z,7.07
2023-07-03T11:29:54.437Z,8.32
2023-07-03T11:32:21.602Z,5.20
2023-07-03T11:40:30.762Z,6.63
2023-07-03T11:45:39.001Z,4.85
2023-07-03T11:48:19.484Z,5.97
2023-07-03T11:50:57.090Z,6.60
2023-07-03T11:53:45.242Z,8.60
2023-07-03T11:56:14.847Z,8.57
2023-07-03T11:58:44.651Z,4.10
2023-07-03T12:01:26.888Z,7.75
2023-07-03T12:03:58.857Z,7.93
2023-07-03T12:06:40.460Z,3.53
2023-07-03T12:09:19.965Z,3.88
2023-07-03T12:12:01.654Z,3.55
2023-07-03T12:14:40.310Z,6.00
2023-07-03T12:17:19.648Z,4.22
2023-07-03T12:19:47.622Z,4.93
2023-07-03T12:22:21.446Z,7.43
2023-07-03T12:24:48.049Z,6.28
2023-07-03T12:27:15.582Z,5.35
2023-07-03T12:29:48.178Z,7.50
2023-07-03T12:32:27.942Z,3.97
2023-07-03T12:34:54.953Z,6.82
2023-07-03T12:37:25.197Z,6.80
2023-07-03T12:39:52.894Z,3.60
2023-07-03T12:42:25.782Z,4.90
2023-07-03T12:44:53.594Z,2.87
2023-07-03T12:47:21.844Z,9.45
2023-07-03T12:49:56.569Z,3.58
2023-07-03T12:52:25.102Z,2.63
2023-07-03T12:54:58.613Z,3.20
2023-07-03T12:57:35.540Z,5.73
2023-07-03T13:00:03.080Z,8.65
2023-07-03T13:02:32.298Z,5.45
2023-07-03T13:05:02.357Z,4.75
2023-07-03T13:07:29.810Z,4.55
2023-07-03T13:09:58.647Z,5.93
2023-07-03T13:12:27.689Z,5.60
2023-07-03T13:15:08.335Z,7.20
2023-07-03T13:17:38.459Z,5.95
2023-07-03T13:20:27.834Z,8.10
2023-07-03T13:23:07.127Z,6.00
2023-07-03T13:25:37.520Z,6.75
2023-07-03T13:28:25.984Z,10.27
2023-07-03T13:31:04.582Z,7.82
2023-07-03T13:33:31.251Z,7.25
2023-07-03T13:35:57.737Z,5.03
2023-07-03T13:38:24.154Z,5.15
2023-07-03T13:40:52.941Z,5.70
2023-07-03T13:43:25.311Z,5.30
2023-07-03T13:45:53.737Z,6.90
2023-07-03T13:48:20.260Z,5.57
2023-07-03T13:50:50.432Z,5.55
2023-07-03T13:53:17.180Z,4.30
2023-07-03T13:55:43.631Z,5.13
2023-07-03T13:58:12.038Z,3.83
2023-07-03T14:00:38.510Z,5.67
2023-07-03T14:03:05.389Z,6.65
2023-07-03T14:05:31.895Z,5.47
2023-07-03T14:07:58.924Z,6.10
2023-07-03T14:10:25.799Z,5.50
2023-07-03T14:12:53.690Z,5.23
2023-07-03T14:15:26.733Z,9.30
2023-07-03T14:17:54.316Z,7.70
2023-07-03T14:20:21.710Z,4.22
2023-07-03T14:22:49.561Z,3.70
2023-07-03T14:25:17.461Z,5.23
2023-07-03T14:27:44.102Z,6.28
2023-07-03T14:30:12.450Z,6.03
2023-07-03T14:32:51.455Z,4.00
2023-07-03T14:35:21.865Z,4.13
2023-07-03T14:37:48.410Z,5.20
2023-07-03T14:40:16.768Z,8.93
2023-07-03T14:42:44.715Z,3.42
2023-07-03T14:45:11.366Z,6.28
2023-07-03T14:47:38.005Z,6.60
2023-07-03T14:50:05.288Z,6.00
2023-07-03T14:52:50.400Z,5.65
2023-07-03T14:55:18.059Z,6.55
2023-07-03T14:57:46.262Z,7.10
2023-07-03T15:00:13.597Z,10.38
2023-07-03T15:02:41.891Z,7.40
2023-07-03T15:05:10.256Z,6.45
2023-07-03T15:07:36.965Z,4.25
2023-07-03T15:10:06.465Z,7.10
2023-07-03T15:12:32.985Z,5.03
2023-07-03T15:14:59.411Z,5.93
2023-07-03T15:17:26.029Z,4.75
2023-07-03T15:19:54.426Z,5.13
2023-07-03T15:22:20.973Z,5.88
2023-07-03T15:24:50.640Z,6.47
2023-07-03T15:27:17.183Z,11.00
2023-07-03T15:29:43.655Z,10.52
2023-07-03T15:32:10.100Z,6.78
2023-07-03T15:34:36.555Z,8.50
2023-07-03T15:37:03.120Z,6.82
2023-07-03T15:39:30.049Z,7.13
2023-07-03T15:41:56.476Z,6.30
2023-07-03T15:44:22.912Z,7.47
2023-07-03T15:46:49.487Z,6.28
2023-07-03T15:49:15.976Z,4.82
2023-07-03T15:51:45.443Z,5.93
2023-07-03T15:54:11.893Z,5.47
2023-07-03T15:56:38.353Z,4.80
2023-07-03T15:59:05.387Z,4.88
2023-07-03T16:01:31.898Z,6.03
2023-07-03T16:04:02.039Z,6.30
2023-07-03T16:06:34.258Z,8.85
2023-07-03T16:09:00.931Z,7.82
2023-07-03T16:11:27.763Z,5.38
2023-07-03T16:13:54.687Z,5.95
2023-07-03T16:16:23.709Z,4.77
2023-07-03T16:18:54.360Z,4.80
2023-07-03T16:21:23.319Z,6.45
2023-07-03T16:23:53.367Z,8.85
2023-07-03T16:26:20.714Z,6.10
2023-07-03T16:28:47.585Z,6.43
2023-07-03T16:31:16.949Z,6.90
2023-07-03T16:33:45.859Z,7.25
2023-07-03T16:36:15.009Z,8.75
2023-07-03T16:38:47.906Z,6.28
2023-07-03T16:41:15.329Z,8.13
2023-07-03T16:43:44.639Z,5.07
2023-07-03T16:46:14.400Z,6.97
2023-07-03T16:48:41.087Z,6.65
2023-07-03T16:51:09.042Z,8.60
2023-07-03T16:53:38.088Z,7.00
2023-07-03T16:56:07.084Z,9.88
2023-07-03T16:58:34.578Z,4.78
2023-07-03T17:01:09.158Z,8.75
2023-07-03T17:03:36.477Z,9.60
2023-07-03T17:06:04.975Z,8.33
2023-07-03T17:08:31.588Z,7.28
2023-07-03T17:10:59.146Z,10.50
2023-07-03T17:13:25.609Z,17.65
2023-07-03T17:15:52.371Z,6.18
2023-07-03T17:18:19.330Z,7.53
2023-07-03T17:20:45.773Z,12.35
2023-07-03T17:23:12.975Z,12.40
2023-07-03T17:25:40.078Z,12.95
2023-07-03T17:28:06.983Z,28.38
2023-07-03T17:30:33.714Z,52.20
2023-07-03T17:33:00.197Z,15.70
2023-07-03T17:35:26.809Z,40.30
2023-07-03T17:37:53.491Z,55.92
2023-07-03T17:40:19.951Z,84.50
2023-07-03T17:42:46.423Z,15.83
2023-07-03T17:45:12.849Z,29.30
2023-07-03T17:47:39.537Z,26.92
2023-07-03T17:50:06.796Z,32.70
2023-07-03T17:52:33.235Z,16.92
2023-07-03T17:54:59.728Z,13.40
2023-07-03T17:57:26.210Z,22.80
2023-07-03T17:59:52.868Z,22.58
2023-07-03T18:02:19.359Z,16.65
2023-07-03T18:04:45.817Z,18.13
2023-07-03T18:07:13.677Z,22.33
2023-07-03T18:09:40.199Z,20.08
2023-07-03T18:12:07.147Z,13.30
2023-07-03T18:14:33.803Z,15.70
2023-07-03T18:17:00.240Z,11.88
2023-07-03T18:19:26.701Z,14.47
2023-07-03T18:21:53.217Z,9.48
2023-07-03T18:24:19.740Z,11.15
2023-07-03T18:26:46.253Z,10.48
2023-07-03T18:29:12.684Z,12.57
2023-07-03T18:31:39.409Z,9.00
2023-07-03T18:34:05.998Z,14.35
2023-07-03T18:36:33.779Z,13.07
2023-07-03T18:39:00.557Z,9.27
2023-07-03T18:41:27.190Z,11.38
2023-07-03T18:43:53.640Z,9.33
2023-07-03T18:46:20.150Z,12.23
2023-07-03T18:48:46.766Z,8.75
2023-07-03T18:51:14.859Z,11.60
2023-07-03T18:53:41.628Z,9.02
2023-07-03T18:56:08.186Z,10.87
2023-07-03T18:58:34.625Z,10.95
2023-07-03T19:01:01.137Z,11.85
2023-07-03T19:03:28.605Z,10.95
2023-07-03T19:06:00.278Z,9.60
2023-07-03T19:08:27.360Z,11.37
2023-07-03T19:10:53.812Z,10.75
2023-07-03T19:13:20.565Z,10.55
2023-07-03T19:15:47.299Z,7.57
2023-07-03T19:18:14.909Z,11.68
2023-07-03T19:20:41.734Z,10.20
2023-07-03T19:23:09.003Z,13.13
2023-07-03T19:25:35.443Z,12.43
2023-07-03T19:28:02.487Z,12.63
2023-07-03T19:30:28.986Z,14.38
2023-07-03T19:32:55.429Z,11.40
2023-07-03T19:35:21.846Z,13.35
2023-07-03T19:37:50.182Z,12.40
2023-07-03T19:40:16.727Z,10.13
2023-07-03T19:42:43.446Z,9.65
2023-07-03T19:45:10.557Z,9.97
2023-07-03T19:47:37.633Z,7.40
2023-07-03T19:50:10.589Z,6.50
2023-07-03T19:52:37.831Z,8.38
2023-07-03T19:55:04.601Z,6.22
2023-07-03T19:57:31.528Z,7.17
2023-07-03T19:59:57.959Z,8.20
2023-07-03T20:02:24.577Z,5.38
2023-07-03T20:04:51.608Z,8.20
2023-07-03T20:07:18.120Z,7.03
2023-07-03T20:09:44.773Z,6.87
2023-07-03T20:12:11.306Z,7.93
2023-07-03T20:14:37.816Z,4.38
2023-07-03T20:17:04.894Z,4.55
2023-07-03T20:19:31.572Z,6.18
2023-07-03T20:21:58.240Z,4.97
2023-07-03T20:24:24.952Z,4.50
2023-07-03T20:26:52.870Z,6.95
2023-07-03T20:29:19.977Z,8.32
2023-07-03T20:31:46.596Z,5.85
2023-07-03T20:34:13.062Z,5.90
2023-07-03T20:36:39.531Z,9.57
2023-07-03T20:39:06.297Z,5.97
2023-07-03T20:41:33.172Z,7.57
2023-07-03T20:44:05.193Z,6.50
2023-07-03T20:46:33.118Z,3.73
2023-07-03T20:49:00.901Z,6.28
2023-07-03T20:51:32.815Z,4.43
2023-07-03T20:53:59.978Z,5.65
2023-07-03T20:56:30.010Z,6.75
2023-07-03T20:58:58.868Z,7.53
2023-07-03T21:01:28.448Z,4.65
2023-07-03T21:03:56.220Z,7.57
2023-07-03T21:06:25.309Z,7.07
2023-07-03T21:08:52.404Z,8.20
2023-07-03T21:11:24.743Z,8.33
2023-07-03T21:13:53.428Z,9.05
2023-07-03T21:16:22.831Z,10.13
2023-07-03T21:18:50.174Z,8.68
2023-07-03T21:21:19.152Z,10.77
2023-07-03T21:23:46.179Z,12.20
2023-07-03T21:26:14.867Z,9.55
2023-07-03T21:28:41.814Z,10.27
2023-07-03T21:31:12.709Z,13.18
2023-07-03T21:33:40.295Z,9.10
2023-07-03T21:36:09.203Z,10.13
2023-07-03T21:38:36.582Z,11.07
2023-07-03T21:41:03.408Z,6.50
2023-07-03T21:43:30.257Z,6.82
2023-07-03T21:46:02.299Z,8.70
2023-07-03T21:48:29.180Z,3.97
2023-07-03T21:50:55.859Z,7.32
2023-07-03T21:53:22.363Z,4.85
2023-07-03T21:55:48.974Z,6.57
2023-07-03T21:58:15.456Z,6.20
2023-07-03T22:00:41.942Z,6.63
2023-07-03T22:03:08.461Z,3.80
2023-07-03T22:05:34.927Z,6.95
2023-07-03T22:08:01.387Z,3.88
2023-07-03T22:10:28.001Z,7.03
2023-07-03T22:12:56.342Z,4.67
2023-07-03T22:15:22.797Z,6.30
2023-07-03T22:17:49.302Z,7.95
2023-07-03T22:20:15.910Z,6.80
2023-07-03T22:22:42.789Z,5.65
2023-07-03T22:25:09.582Z,8.40
2023-07-03T22:27:36.063Z,6.68
2023-07-03T22:30:02.724Z,8.50
2023-07-03T22:32:30.672Z,6.18
2023-07-03T22:34:57.263Z,8.45
2023-07-03T22:37:23.737Z,6.70
2023-07-03T22:39:50.287Z,7.40
2023-07-03T22:42:16.748Z,8.85
2023-07-03T22:44:43.330Z,6.88
2023-07-03T22:47:09.901Z,8.07
2023-07-03T22:49:36.406Z,8.50
2023-07-03T22:52:03.657Z,7.50
2023-07-03T22:54:30.190Z,8.25
2023-07-03T22:56:56.619Z,7.95
2023-07-03T22:59:23.047Z,8.90
2023-07-03T23:01:53.127Z,8.40
2023-07-03T23:04:19.972Z,9.23
2023-07-03T23:06:47.030Z,6.30
2023-07-03T23:09:14.240Z,8.85
2023-07-03T23:11:40.819Z,7.85
2023-07-03T23:14:07.267Z,10.70
2023-07-03T23:16:33.701Z,8.50
2023-07-03T23:19:00.551Z,9.93
2023-07-03T23:21:27.020Z,10.15
2023-07-03T23:23:56.689Z,9.80
2023-07-03T23:26:25.684Z,12.10
2023-07-03T23:28:52.382Z,8.45
2023-07-03T23:31:19.145Z,8.43
2023-07-03T23:33:48.916Z,10.55
2023-07-03T23:36:16.090Z,11.30
2023-07-03T23:38:45.679Z,12.23
2023-07-03T23:41:12.660Z,9.35
2023-07-03T23:43:40.610Z,10.48
2023-07-03T23:46:08.804Z,7.30
2023-07-03T23:48:36.217Z,10.00
2023-07-03T23:51:05.337Z,7.90
2023-07-03T23:53:37.545Z,9.30
2023-07-03T23:56:06.958Z,10.38
2023-07-03T23:58:35.228Z,8.73
